createdAt,value
2023-01-30T00:02:57.731Z,0.20
2023-01-30T00:13:23.311Z,0.40
2023-01-30T00:18:29.155Z,0.80
2023-01-30T00:23:33.188Z,0.90
2023-01-30T00:28:45.729Z,0.70
2023-01-30T00:33:51.239Z,0.50
2023-01-30T00:39:01.904Z,0.60
2023-01-30T00:44:25.856Z,0.40
2023-01-30T00:49:32.762Z,0.50
2023-01-30T00:54:38.917Z,0.50
2023-01-30T00:59:40.958Z,0.40
2023-01-30T01:04:47.372Z,0.50
2023-01-30T01:09:50.667Z,0.70
2023-01-30T01:14:55.152Z,0.90
2023-01-30T01:19:59.868Z,0.60
2023-01-30T01:25:02.654Z,0.70
2023-01-30T01:30:17.357Z,0.90
2023-01-30T01:35:20.195Z,1.10
2023-01-30T01:40:42.467Z,1.30
2023-01-30T01:45:45.291Z,1.30
2023-01-30T01:50:49.148Z,1.30
2023-01-30T01:55:54.545Z,1.40
2023-01-30T02:00:58.889Z,1.40
2023-01-30T02:06:03.374Z,1.40
2023-01-30T02:11:12.876Z,1.40
2023-01-30T02:16:15.579Z,1.50
2023-01-30T02:21:41.872Z,1.30
2023-01-30T02:26:55.707Z,1.20
2023-01-30T02:32:27.692Z,1.40
2023-01-30T02:38:07.282Z,1.20
2023-01-30T02:43:23.728Z,1.30
2023-01-30T02:48:30.703Z,1.40
2023-01-30T02:53:34.070Z,1.40
2023-01-30T02:58:42.682Z,1.30
2023-01-30T03:04:02.548Z,1.40
2023-01-30T03:09:25.636Z,1.40
2023-01-30T03:14:33.840Z,1.30
2023-01-30T03:24:37.929Z,1.30
2023-01-30T03:29:40.472Z,1.50
2023-01-30T03:34:42.291Z,1.40
2023-01-30T03:44:46.234Z,1.60
2023-01-30T03:49:48.059Z,1.80
2023-01-30T03:54:49.766Z,1.90
2023-01-30T04:09:56.445Z,1.70
2023-01-30T04:14:58.215Z,3.30
2023-01-30T04:19:59.941Z,2.20
2023-01-30T04:25:01.963Z,2.10
2023-01-30T04:30:04.491Z,1.80
2023-01-30T04:35:06.607Z,1.90
2023-01-30T04:40:09.063Z,2.10
2023-01-30T04:45:11.208Z,1.90
2023-01-30T04:50:13.016Z,1.90
2023-01-30T04:55:15.074Z,2.00
2023-01-30T05:00:17.182Z,1.90
2023-01-30T05:10:22.031Z,1.80
2023-01-30T05:15:23.777Z,1.70
2023-01-30T05:20:25.891Z,2.00
2023-01-30T05:25:27.626Z,1.80
2023-01-30T05:30:29.441Z,1.80
2023-01-30T05:35:31.279Z,1.80
2023-01-30T05:50:37.358Z,2.00
2023-01-30T06:00:41.639Z,2.10
2023-01-30T06:05:43.487Z,2.10
2023-01-30T06:10:45.259Z,2.20
2023-01-30T06:15:47.070Z,2.40
2023-01-30T06:20:53.177Z,1.90
2023-01-30T06:25:55.765Z,2.20
2023-01-30T06:30:57.570Z,2.20
2023-01-30T06:41:01.926Z,2.00
2023-01-30T06:51:06.131Z,2.30
2023-01-30T07:01:10.147Z,2.30
2023-01-30T07:06:11.857Z,2.50
2023-01-30T07:11:13.583Z,2.60
2023-01-30T07:16:15.335Z,2.60
2023-01-30T07:21:17.094Z,2.50
2023-01-30T07:26:18.870Z,2.60
2023-01-30T07:31:20.654Z,2.70
2023-01-30T07:36:22.432Z,2.60
2023-01-30T07:41:24.155Z,2.50
2023-01-30T07:46:25.970Z,2.60
2023-01-30T07:51:28.392Z,2.70
2023-01-30T07:56:30.655Z,2.80
2023-01-30T08:01:33.118Z,2.40
2023-01-30T08:06:39.166Z,2.80
2023-01-30T08:11:41.055Z,2.80
2023-01-30T08:16:42.887Z,2.70
2023-01-30T08:21:44.731Z,2.80
2023-01-30T08:26:49.342Z,2.40
2023-01-30T08:31:51.116Z,2.40
2023-01-30T08:36:53.231Z,4.00
2023-01-30T08:41:55.112Z,4.30
2023-01-30T08:46:56.830Z,3.40
2023-01-30T08:51:58.628Z,3.00
2023-01-30T08:57:00.384Z,3.00
2023-01-30T09:02:02.264Z,2.70
2023-01-30T09:07:04.195Z,2.90
2023-01-30T09:17:08.251Z,2.70
2023-01-30T09:22:10.117Z,5.40
2023-01-30T09:32:14.949Z,3.10
2023-01-30T09:37:16.762Z,3.20
2023-01-30T09:42:47.225Z,4.90
2023-01-30T09:48:10.218Z,3.20
2023-01-30T09:53:28.168Z,2.90
2023-01-30T09:58:47.832Z,3.30
2023-01-30T10:04:03.770Z,3.60
2023-01-30T10:09:37.278Z,3.50
2023-01-30T10:15:25.109Z,3.40
2023-01-30T10:20:49.772Z,3.40
2023-01-30T10:25:55.980Z,3.10
2023-01-30T10:31:14.047Z,3.40
2023-01-30T10:36:47.555Z,3.50
2023-01-30T10:41:58.912Z,3.60
2023-01-30T10:47:00.529Z,3.40
2023-01-30T10:52:05.007Z,3.30
2023-01-30T10:58:06.322Z,3.50
2023-01-30T11:03:14.355Z,3.70
2023-01-30T11:08:23.732Z,3.90
2023-01-30T11:13:31.568Z,3.60
2023-01-30T11:19:18.855Z,3.80
2023-01-30T11:24:14.634Z,4.80
2023-01-30T11:29:30.110Z,3.80
2023-01-30T11:34:31.992Z,3.80
2023-01-30T11:44:40.171Z,3.90
2023-01-30T11:49:58.028Z,3.80
2023-01-30T11:55:13.474Z,3.80
2023-01-30T12:00:37.190Z,3.50
2023-01-30T12:05:42.570Z,3.90
2023-01-30T12:10:46.100Z,4.00
2023-01-30T12:15:55.279Z,3.80
2023-01-30T12:21:07.225Z,3.90
2023-01-30T12:26:14.896Z,3.90
2023-01-30T12:31:22.615Z,3.90
2023-01-30T12:36:50.680Z,4.00
2023-01-30T12:42:07.326Z,4.10
2023-01-30T12:47:23.862Z,4.00
2023-01-30T12:52:44.326Z,3.90
2023-01-30T12:57:49.084Z,4.20
2023-01-30T13:03:22.463Z,4.00
2023-01-30T13:09:02.767Z,3.90
2023-01-30T13:14:34.431Z,3.90
2023-01-30T13:20:15.786Z,3.90
2023-01-30T13:26:01.512Z,4.30
2023-01-30T13:31:12.259Z,4.50
2023-01-30T13:37:01.558Z,4.40
2023-01-30T13:42:08.778Z,4.20
2023-01-30T13:47:13.994Z,4.30
2023-01-30T13:52:32.191Z,4.30
2023-01-30T13:57:53.994Z,4.40
2023-01-30T14:03:08.012Z,4.40
2023-01-30T14:08:19.915Z,4.20
2023-01-30T14:13:23.880Z,4.10
2023-01-30T14:18:36.062Z,5.80
2023-01-30T14:23:37.884Z,4.40
2023-01-30T14:28:47.508Z,4.40
2023-01-30T14:33:51.534Z,4.40
2023-01-30T14:39:17.104Z,4.30
2023-01-30T14:44:56.972Z,4.20
2023-01-30T14:50:00.851Z,4.30
2023-01-30T14:55:03.619Z,5.30
2023-01-30T15:00:18.762Z,4.10
2023-01-30T15:05:30.384Z,4.10
2023-01-30T15:10:47.996Z,4.10
2023-01-30T15:16:21.368Z,4.00
2023-01-30T15:21:49.778Z,4.20
2023-01-30T15:27:13.261Z,4.90
2023-01-30T15:32:16.414Z,3.80
2023-01-30T15:37:37.698Z,3.80
2023-01-30T15:42:39.579Z,4.00
2023-01-30T15:47:44.401Z,4.20
2023-01-30T15:52:49.434Z,4.20
2023-01-30T15:58:05.794Z,3.90
2023-01-30T16:03:17.348Z,4.10
2023-01-30T16:08:30.065Z,4.10
2023-01-30T16:13:33.316Z,3.80
2023-01-30T16:18:59.296Z,4.00
2023-01-30T16:24:05.639Z,4.10
2023-01-30T16:29:13.783Z,4.10
2023-01-30T16:34:33.899Z,4.20
2023-01-30T16:39:37.744Z,4.00
2023-01-30T16:49:48.809Z,3.80
2023-01-30T16:54:54.213Z,4.00
2023-01-30T16:59:56.431Z,4.00
2023-01-30T17:05:16.839Z,4.20
2023-01-30T17:10:28.106Z,4.10
2023-01-30T17:15:32.970Z,4.20
2023-01-30T17:20:39.809Z,4.30
2023-01-30T17:25:45.887Z,5.80
2023-01-30T17:30:50.110Z,4.50
2023-01-30T17:35:52.257Z,4.90
2023-01-30T17:40:54.059Z,4.60
2023-01-30T17:45:57.469Z,4.50
2023-01-30T17:56:01.652Z,4.40
2023-01-30T18:06:06.074Z,4.70
2023-01-30T18:11:12.110Z,4.50
2023-01-30T18:16:18.927Z,4.30
2023-01-30T18:26:26.831Z,4.30
2023-01-30T18:31:32.098Z,5.00
2023-01-30T18:36:35.074Z,4.40
2023-01-30T18:41:36.738Z,4.60
2023-01-30T18:46:38.553Z,7.20
2023-01-30T18:51:40.646Z,4.60
2023-01-30T18:56:42.461Z,4.70
2023-01-30T19:01:44.507Z,5.10
2023-01-30T19:06:46.339Z,4.60
2023-01-30T19:12:06.632Z,4.60
2023-01-30T19:17:08.372Z,4.50
2023-01-30T19:22:10.135Z,4.40
2023-01-30T19:27:13.892Z,4.40
2023-01-30T19:32:15.777Z,4.50
2023-01-30T19:42:19.730Z,4.50
2023-01-30T19:57:27.197Z,4.60
2023-01-30T20:02:30.218Z,4.70
2023-01-30T20:07:37.261Z,4.70
2023-01-30T20:12:39.580Z,4.70
2023-01-30T20:22:43.667Z,4.80
2023-01-30T20:32:47.542Z,4.50
2023-01-30T20:37:49.371Z,4.60
2023-01-30T20:42:51.139Z,4.70
2023-01-30T20:47:52.852Z,5.70
2023-01-30T21:02:58.909Z,4.70
2023-01-30T21:08:00.869Z,4.40
2023-01-30T21:13:04.306Z,4.60
2023-01-30T21:18:06.157Z,4.70
2023-01-30T21:23:07.841Z,6.50
2023-01-30T21:28:09.610Z,4.60
2023-01-30T21:38:31.922Z,4.50
2023-01-30T21:43:33.615Z,4.70
2023-01-30T21:48:35.328Z,4.80
2023-01-30T21:53:37.565Z,4.60
2023-01-30T21:58:39.322Z,4.80
2023-01-30T22:03:41.075Z,5.10
2023-01-30T22:13:45.873Z,4.80
2023-01-30T22:18:52.050Z,4.60
2023-01-30T22:23:55.033Z,4.70
2023-01-30T22:28:58.900Z,4.70
2023-01-30T22:34:01.879Z,4.80
2023-01-30T22:39:05.704Z,4.80
2023-01-30T22:44:09.808Z,5.30
2023-01-30T22:54:15.928Z,4.60
2023-01-30T22:59:17.971Z,5.40
2023-01-30T23:04:21.948Z,5.00
2023-01-30T23:09:24.083Z,4.60
2023-01-30T23:14:25.957Z,4.90
2023-01-30T23:24:29.884Z,4.90
2023-01-30T23:29:31.612Z,4.90
2023-01-30T23:34:33.459Z,4.60
2023-01-30T23:39:35.511Z,4.60
2023-01-30T23:44:37.619Z,4.60
2023-01-30T23:49:39.888Z,4.60
2023-01-30T23:59:44.294Z,4.70
